createdAt,value
2022-11-25T00:01:05.674Z,95414.63
2022-11-25T00:03:33.368Z,95406.03
2022-11-25T00:06:09.633Z,95411.38
2022-11-25T00:08:39.056Z,95412.22
2022-11-25T00:11:07.649Z,95421.09
2022-11-25T00:13:35.867Z,95421.78
2022-11-25T00:16:04.702Z,95429.19
2022-11-25T00:18:32.857Z,95425.97
2022-11-25T00:21:00.588Z,95428.44
2022-11-25T00:23:33.175Z,95414.63
2022-11-25T00:26:08.967Z,95418.41
2022-11-25T00:28:36.704Z,95419.25
2022-11-25T00:31:09.058Z,95412.03
2022-11-25T00:33:37.278Z,95407.50
2022-11-25T00:36:08.243Z,95411.22
2022-11-25T00:38:35.907Z,95416.91
2022-11-25T00:41:21.279Z,95416.75
2022-11-25T00:44:07.837Z,95415.34
2022-11-25T00:46:38.381Z,95419.50
2022-11-25T00:49:07.381Z,95419.69
2022-11-25T00:51:35.031Z,95426.50
2022-11-25T00:54:02.857Z,95417.31
2022-11-25T00:56:30.872Z,95424.22
2022-11-25T00:59:00.057Z,95406.88
2022-11-25T01:01:27.822Z,95414.72
2022-11-25T01:03:55.519Z,95410.16
2022-11-25T01:06:23.920Z,95413.03
2022-11-25T01:08:51.934Z,95414.81
2022-11-25T01:11:22.039Z,95411.06
2022-11-25T01:13:50.729Z,95409.06
2022-11-25T01:16:21.237Z,95405.00
2022-11-25T01:18:50.493Z,95407.66
2022-11-25T01:21:21.214Z,95399.97
2022-11-25T01:23:49.713Z,95393.81
2022-11-25T01:26:20.219Z,95389.59
2022-11-25T01:28:48.527Z,95393.81
2022-11-25T01:31:18.381Z,95387.75
2022-11-25T01:33:48.869Z,95393.97
2022-11-25T01:36:18.294Z,95399.28
2022-11-25T01:38:46.694Z,95400.31
2022-11-25T01:41:15.715Z,95407.97
2022-11-25T01:43:43.492Z,95408.00
2022-11-25T01:46:21.923Z,95421.19
2022-11-25T01:48:55.492Z,95414.31
2022-11-25T01:51:27.514Z,95405.31
2022-11-25T01:53:58.930Z,95401.91
2022-11-25T01:56:27.533Z,95399.75
2022-11-25T01:58:56.348Z,95402.94
2022-11-25T02:01:24.172Z,95393.81
2022-11-25T02:03:55.679Z,95398.06
2022-11-25T02:06:26.211Z,95396.94
2022-11-25T02:08:57.213Z,95393.50
2022-11-25T02:11:27.562Z,95395.44
2022-11-25T02:13:55.785Z,95391.78
2022-11-25T02:16:23.528Z,95385.53
2022-11-25T02:18:53.402Z,95389.44
2022-11-25T02:21:26.898Z,95390.34
2022-11-25T02:24:00.455Z,95383.06
2022-11-25T02:26:29.687Z,95384.53
2022-11-25T02:28:58.052Z,95384.84
2022-11-25T02:31:25.833Z,95384.56
2022-11-25T02:33:53.509Z,95379.94
2022-11-25T02:36:23.637Z,95385.31
2022-11-25T02:38:55.812Z,95388.34
2022-11-25T02:41:27.723Z,95384.47
2022-11-25T02:43:56.740Z,95387.78
2022-11-25T02:46:25.963Z,95393.22
2022-11-25T02:49:09.033Z,95399.53
2022-11-25T02:51:37.856Z,95397.66
2022-11-25T02:54:05.693Z,95388.78
2022-11-25T02:56:36.346Z,95389.03
2022-11-25T02:59:06.010Z,95389.81
2022-11-25T03:01:35.098Z,95387.13
2022-11-25T03:04:02.959Z,95397.03
2022-11-25T03:06:31.194Z,95399.84
2022-11-25T03:08:59.064Z,95396.88
2022-11-25T03:11:47.238Z,95388.59
2022-11-25T03:14:16.367Z,95394.25
2022-11-25T03:16:44.434Z,95391.13
2022-11-25T03:19:12.151Z,95388.50
2022-11-25T03:21:39.796Z,95386.66
2022-11-25T03:24:08.077Z,95388.50
2022-11-25T03:26:35.665Z,95386.66
2022-11-25T03:29:03.530Z,95390.25
2022-11-25T03:31:32.549Z,95380.16
2022-11-25T03:34:00.179Z,95385.81
2022-11-25T03:36:27.747Z,95379.75
2022-11-25T03:38:55.380Z,95384.69
2022-11-25T03:41:22.939Z,95389.84
2022-11-25T03:43:50.571Z,95387.53
2022-11-25T03:46:18.673Z,95390.19
2022-11-25T03:48:47.812Z,95385.97
2022-11-25T03:51:15.422Z,95395.50
2022-11-25T03:53:43.103Z,95395.06
2022-11-25T03:56:10.733Z,95394.16
2022-11-25T03:58:38.315Z,95391.75
2022-11-25T04:01:06.092Z,95391.03
2022-11-25T04:03:33.735Z,95394.16
2022-11-25T04:06:02.804Z,95397.47
2022-11-25T04:08:30.437Z,95405.38
2022-11-25T04:10:58.015Z,95406.47
2022-11-25T04:13:24.818Z,95399.53
2022-11-25T04:15:52.706Z,95409.84
2022-11-25T04:18:20.529Z,95408.75
2022-11-25T04:20:48.270Z,95400.44
2022-11-25T04:23:17.271Z,95406.16
2022-11-25T04:25:44.968Z,95411.88
2022-11-25T04:28:12.786Z,95413.44
2022-11-25T04:30:40.669Z,95413.00
2022-11-25T04:33:08.495Z,95410.53
2022-11-25T04:35:36.084Z,95410.81
2022-11-25T04:38:03.774Z,95425.44
2022-11-25T04:40:32.698Z,95429.13
2022-11-25T04:43:06.048Z,95430.78
2022-11-25T04:45:51.916Z,95424.91
2022-11-25T04:48:22.834Z,95427.66
2022-11-25T04:50:50.497Z,95428.56
2022-11-25T04:53:18.114Z,95432.69
2022-11-25T04:55:47.116Z,95430.13
2022-11-25T04:58:35.170Z,95421.88
2022-11-25T05:01:01.877Z,95430.41
2022-11-25T05:03:29.547Z,95429.84
2022-11-25T05:05:57.181Z,95433.25
2022-11-25T05:08:24.760Z,95425.69
2022-11-25T05:10:53.726Z,95424.72
2022-11-25T05:13:21.514Z,95420.19
2022-11-25T05:15:49.114Z,95426.44
2022-11-25T05:18:16.692Z,95419.94
2022-11-25T05:20:44.911Z,95416.34
2022-11-25T05:23:12.516Z,95422.72
2022-11-25T05:25:40.116Z,95426.44
2022-11-25T05:28:09.135Z,95418.97
2022-11-25T05:30:36.825Z,95425.03
2022-11-25T05:33:04.452Z,95425.53
2022-11-25T05:35:32.066Z,95429.19
2022-11-25T05:38:01.176Z,95423.28
2022-11-25T05:40:28.800Z,95427.22
2022-11-25T05:42:56.439Z,95427.06
2022-11-25T05:45:25.368Z,95434.63
2022-11-25T05:47:53.041Z,95427.28
2022-11-25T05:50:20.655Z,95432.16
2022-11-25T05:52:48.351Z,95432.25
2022-11-25T05:55:15.992Z,95431.31
2022-11-25T05:57:43.689Z,95434.91
2022-11-25T06:00:12.303Z,95434.72
2022-11-25T06:02:41.405Z,95445.97
2022-11-25T06:05:09.971Z,95446.84
2022-11-25T06:07:37.739Z,95450.72
2022-11-25T06:10:06.536Z,95442.41
2022-11-25T06:12:34.167Z,95436.16
2022-11-25T06:15:01.783Z,95432.97
2022-11-25T06:17:29.380Z,95431.50
2022-11-25T06:19:58.353Z,95441.72
2022-11-25T06:22:27.039Z,95442.34
2022-11-25T06:25:01.949Z,95431.56
2022-11-25T06:27:50.155Z,95431.13
2022-11-25T06:30:19.483Z,95425.88
2022-11-25T06:32:47.166Z,95427.28
2022-11-25T06:35:16.485Z,95425.06
2022-11-25T06:37:44.112Z,95425.25
2022-11-25T06:40:12.352Z,95427.69
2022-11-25T06:42:43.287Z,95435.25
2022-11-25T06:45:11.992Z,95423.41
2022-11-25T06:47:39.605Z,95436.19
2022-11-25T06:50:08.807Z,95442.13
2022-11-25T06:52:38.148Z,95442.81
2022-11-25T06:55:06.628Z,95439.19
2022-11-25T06:57:34.227Z,95440.09
2022-11-25T07:00:01.858Z,95436.66
2022-11-25T07:02:32.291Z,95436.13
2022-11-25T07:05:02.348Z,95436.41
2022-11-25T07:07:30.125Z,95430.91
2022-11-25T07:09:59.112Z,95435.56
2022-11-25T07:12:26.716Z,95437.91
2022-11-25T07:14:54.487Z,95441.59
2022-11-25T07:17:22.115Z,95443.53
2022-11-25T07:19:49.739Z,95457.72
2022-11-25T07:22:17.350Z,95454.59
2022-11-25T07:24:44.934Z,95451.47
2022-11-25T07:27:13.873Z,95450.34
2022-11-25T07:30:03.162Z,95461.56
2022-11-25T07:32:29.117Z,95464.50
2022-11-25T07:34:56.742Z,95463.31
2022-11-25T07:37:24.340Z,95466.00
2022-11-25T07:39:51.967Z,95460.59
2022-11-25T07:42:21.004Z,95460.22
2022-11-25T07:44:49.634Z,95464.09
2022-11-25T07:47:17.344Z,95464.44
2022-11-25T07:49:44.981Z,95459.59
2022-11-25T07:52:12.623Z,95466.66
2022-11-25T07:54:40.242Z,95465.38
2022-11-25T07:57:07.882Z,95468.56
2022-11-25T07:59:41.199Z,95466.66
2022-11-25T08:02:10.907Z,95477.88
2022-11-25T08:04:38.674Z,95482.75
2022-11-25T08:07:06.309Z,95487.25
2022-11-25T08:09:34.389Z,95486.91
2022-11-25T08:12:02.117Z,95492.13
2022-11-25T08:14:29.997Z,95472.63
2022-11-25T08:16:59.139Z,95465.50
2022-11-25T08:19:31.270Z,95470.38
2022-11-25T08:21:59.296Z,95467.63
2022-11-25T08:24:27.050Z,95472.59
2022-11-25T08:26:56.628Z,95472.22
2022-11-25T08:29:24.226Z,95480.53
2022-11-25T08:31:51.813Z,95478.50
2022-11-25T08:34:24.840Z,95468.81
2022-11-25T08:36:52.957Z,95467.50
2022-11-25T08:39:51.606Z,95470.09
2022-11-25T08:42:10.123Z,95470.53
2022-11-25T08:44:37.966Z,95475.25
2022-11-25T08:47:05.699Z,95476.97
2022-11-25T08:49:40.557Z,95485.47
2022-11-25T08:52:10.031Z,95499.75
2022-11-25T08:54:38.107Z,95503.47
2022-11-25T08:57:05.835Z,95510.72
2022-11-25T08:59:33.507Z,95519.63
2022-11-25T09:02:01.439Z,95517.16
2022-11-25T09:04:29.073Z,95522.50
2022-11-25T09:06:58.392Z,95529.72
2022-11-25T09:09:26.060Z,95528.78
2022-11-25T09:11:53.832Z,95531.56
2022-11-25T09:14:22.143Z,95540.72
2022-11-25T09:16:49.943Z,95539.16
2022-11-25T09:19:17.521Z,95542.91
2022-11-25T09:21:45.295Z,95546.44
2022-11-25T09:24:14.410Z,95550.75
2022-11-25T09:26:42.273Z,95547.28
2022-11-25T09:29:11.575Z,95549.19
2022-11-25T09:31:39.226Z,95556.47
2022-11-25T09:34:08.555Z,95549.84
2022-11-25T09:36:36.315Z,95549.94
2022-11-25T09:39:04.201Z,95549.19
2022-11-25T09:42:04.277Z,95554.47
2022-11-25T09:44:57.725Z,95550.94
2022-11-25T09:47:34.573Z,95533.63
2022-11-25T09:50:12.888Z,95546.78
2022-11-25T09:52:53.582Z,95539.09
2022-11-25T09:55:24.968Z,95538.28
2022-11-25T09:58:03.120Z,95538.84
2022-11-25T10:00:38.749Z,95546.31
2022-11-25T10:03:14.017Z,95546.31
2022-11-25T10:05:53.991Z,95542.09
2022-11-25T10:08:24.951Z,95548.59
2022-11-25T10:10:58.624Z,95539.81
2022-11-25T10:13:33.689Z,95549.69
2022-11-25T10:16:06.459Z,95541.53
2022-11-25T10:18:41.498Z,95545.81
2022-11-25T10:21:11.367Z,95541.66
2022-11-25T10:23:40.545Z,95543.25
2022-11-25T10:26:14.433Z,95549.41
2022-11-25T10:28:48.743Z,95549.88
2022-11-25T10:31:19.472Z,95552.88
2022-11-25T10:33:49.423Z,95545.84
2022-11-25T10:36:20.278Z,95549.97
2022-11-25T10:38:57.871Z,95542.84
2022-11-25T10:41:29.518Z,95545.75
2022-11-25T10:43:58.813Z,95554.94
2022-11-25T10:46:56.681Z,95548.13
2022-11-25T10:49:30.932Z,95550.41
2022-11-25T10:51:58.948Z,95541.00
2022-11-25T10:54:29.016Z,95539.03
2022-11-25T10:56:58.439Z,95554.41
2022-11-25T10:59:30.805Z,95541.56
2022-11-25T11:02:17.543Z,95540.75
2022-11-25T11:04:58.418Z,95537.44
2022-11-25T11:07:27.928Z,95537.72
2022-11-25T11:10:08.346Z,95539.25
2022-11-25T11:12:36.257Z,95532.75
2022-11-25T11:15:20.415Z,95533.25
2022-11-25T11:17:48.963Z,95536.97
2022-11-25T11:20:25.442Z,95535.59
2022-11-25T11:22:58.405Z,95535.16
2022-11-25T11:25:33.275Z,95539.22
2022-11-25T11:28:02.246Z,95528.88
2022-11-25T11:30:32.771Z,95527.81
2022-11-25T11:33:06.370Z,95525.94
2022-11-25T11:35:44.076Z,95531.00
2022-11-25T11:38:27.990Z,95528.72
2022-11-25T11:41:03.563Z,95532.16
2022-11-25T11:43:47.755Z,95522.91
2022-11-25T11:46:33.646Z,95529.44
2022-11-25T11:49:30.210Z,95530.47
2022-11-25T11:52:03.836Z,95524.78
2022-11-25T11:54:36.432Z,95532.53
2022-11-25T11:57:08.324Z,95524.00
2022-11-25T11:59:49.359Z,95522.72
2022-11-25T12:02:29.692Z,95520.69
2022-11-25T12:05:06.195Z,95514.00
2022-11-25T12:07:39.850Z,95517.81
2022-11-25T12:10:18.310Z,95523.97
2022-11-25T12:12:52.446Z,95516.47
2022-11-25T12:15:25.528Z,95522.31
2022-11-25T12:17:59.187Z,95520.06
2022-11-25T12:20:37.584Z,95514.94
2022-11-25T12:23:11.408Z,95525.69
2022-11-25T12:25:42.554Z,95522.47
2022-11-25T12:28:16.120Z,95518.47
2022-11-25T12:31:01.855Z,95521.31
2022-11-25T12:33:44.939Z,95512.69
2022-11-25T12:36:17.647Z,95517.16
2022-11-25T12:38:48.011Z,95513.97
2022-11-25T12:41:24.472Z,95513.78
2022-11-25T12:43:56.449Z,95519.31
2022-11-25T12:46:30.618Z,95507.56
2022-11-25T12:49:00.555Z,95518.28
2022-11-25T12:51:46.123Z,95512.59
2022-11-25T12:54:31.431Z,95513.44
2022-11-25T12:57:32.043Z,95514.66
2022-11-25T13:00:39.947Z,95515.91
2022-11-25T13:03:26.869Z,95513.78
2022-11-25T13:06:30.800Z,95511.81
2022-11-25T13:09:04.830Z,95515.72
2022-11-25T13:11:54.151Z,95510.41
2022-11-25T13:14:28.875Z,95518.31
2022-11-25T13:16:58.622Z,95519.50
2022-11-25T13:19:26.621Z,95521.50
2022-11-25T13:22:00.912Z,95519.50
2022-11-25T13:24:32.717Z,95522.56
2022-11-25T13:27:02.232Z,95523.97
2022-11-25T13:30:01.123Z,95521.84
2022-11-25T13:32:38.985Z,95521.72
2022-11-25T13:35:38.084Z,95526.56
2022-11-25T13:38:49.093Z,95531.50
2022-11-25T13:41:26.542Z,95535.28
2022-11-25T13:44:02.058Z,95538.56
2022-11-25T13:46:38.384Z,95533.69
2022-11-25T13:49:07.070Z,95534.63
2022-11-25T13:51:34.927Z,95539.19
2022-11-25T13:54:07.613Z,95534.41
2022-11-25T13:56:37.320Z,95545.56
2022-11-25T13:59:35.915Z,95548.00
2022-11-25T14:02:36.930Z,95539.59
2022-11-25T14:05:27.819Z,95539.94
2022-11-25T14:08:08.234Z,95551.94
2022-11-25T14:10:46.673Z,95558.75
2022-11-25T14:13:47.320Z,95557.25
2022-11-25T14:16:31.767Z,95555.94
2022-11-25T14:19:50.168Z,95559.56
2022-11-25T14:22:24.683Z,95561.88
2022-11-25T14:24:55.428Z,95568.41
2022-11-25T14:27:28.969Z,95570.16
2022-11-25T14:30:00.762Z,95577.72
2022-11-25T14:32:36.753Z,95580.44
2022-11-25T14:35:09.218Z,95593.72
2022-11-25T14:37:43.586Z,95590.47
2022-11-25T14:40:16.504Z,95600.56
2022-11-25T14:42:49.695Z,95610.94
2022-11-25T14:45:29.176Z,95615.03
2022-11-25T14:47:57.053Z,95614.16
2022-11-25T14:50:40.972Z,95618.88
2022-11-25T14:53:10.425Z,95631.50
2022-11-25T14:55:38.843Z,95630.72
2022-11-25T14:58:07.949Z,95641.16
2022-11-25T15:00:35.572Z,95638.56
2022-11-25T15:03:06.452Z,95643.81
2022-11-25T15:05:36.085Z,95644.53
2022-11-25T15:08:10.665Z,95656.91
2022-11-25T15:10:43.471Z,95655.69
2022-11-25T15:13:24.808Z,95664.50
2022-11-25T15:15:55.648Z,95661.09
2022-11-25T15:18:25.313Z,95662.75
2022-11-25T15:20:58.388Z,95663.22
2022-11-25T15:23:31.933Z,95663.47
2022-11-25T15:26:01.072Z,95665.69
2022-11-25T15:28:35.087Z,95673.16
2022-11-25T15:31:08.811Z,95675.59
2022-11-25T15:33:38.223Z,95685.25
2022-11-25T15:36:06.543Z,95690.97
2022-11-25T15:38:37.966Z,95697.38
2022-11-25T15:41:07.823Z,95699.03
2022-11-25T15:43:42.015Z,95702.78
2022-11-25T15:46:10.371Z,95697.59
2022-11-25T15:48:41.588Z,95690.25
2022-11-25T15:51:22.585Z,95703.44
2022-11-25T15:53:54.713Z,95700.66
2022-11-25T15:56:25.574Z,95706.66
2022-11-25T15:59:00.156Z,95706.16
2022-11-25T16:01:31.938Z,95707.91
2022-11-25T16:04:20.915Z,95706.78
2022-11-25T16:06:56.532Z,95717.16
2022-11-25T16:09:28.497Z,95725.72
2022-11-25T16:12:05.895Z,95726.03
2022-11-25T16:14:38.779Z,95733.81
2022-11-25T16:17:12.140Z,95725.53
2022-11-25T16:19:43.188Z,95734.75
2022-11-25T16:22:15.332Z,95727.09
2022-11-25T16:24:50.772Z,95729.88
2022-11-25T16:27:21.201Z,95734.84
2022-11-25T16:29:52.925Z,95745.63
2022-11-25T16:32:22.099Z,95741.16
2022-11-25T16:34:50.020Z,95740.44
2022-11-25T16:37:17.750Z,95736.50
2022-11-25T16:39:45.422Z,95739.50
2022-11-25T16:42:21.423Z,95745.69
2022-11-25T16:44:52.089Z,95763.22
2022-11-25T16:47:21.809Z,95758.03
2022-11-25T16:49:49.564Z,95774.19
2022-11-25T16:52:17.226Z,95770.97
2022-11-25T16:54:44.825Z,95776.34
2022-11-25T16:57:18.863Z,95776.03
2022-11-25T16:59:49.667Z,95783.31
2022-11-25T17:02:22.847Z,95783.81
2022-11-25T17:04:50.887Z,95794.09
2022-11-25T17:07:35.814Z,95796.56
2022-11-25T17:10:04.054Z,95805.69
2022-11-25T17:12:34.269Z,95809.94
2022-11-25T17:15:03.014Z,95819.38
2022-11-25T17:17:32.665Z,95817.19
2022-11-25T17:20:00.345Z,95822.69
2022-11-25T17:22:33.338Z,95822.88
2022-11-25T17:25:02.445Z,95829.94
2022-11-25T17:27:32.292Z,95833.66
2022-11-25T17:30:03.569Z,95838.53
2022-11-25T17:32:33.021Z,95838.41
2022-11-25T17:35:00.895Z,95841.72
2022-11-25T17:37:30.973Z,95855.06
2022-11-25T17:39:58.611Z,95859.53
2022-11-25T17:42:30.406Z,95859.84
2022-11-25T17:44:58.594Z,95868.84
2022-11-25T17:47:26.226Z,95866.09
2022-11-25T17:49:55.286Z,95864.19
2022-11-25T17:52:23.030Z,95868.97
2022-11-25T17:54:50.662Z,95879.94
2022-11-25T17:57:21.852Z,95878.81
2022-11-25T17:59:50.009Z,95881.94
2022-11-25T18:02:19.528Z,95882.78
2022-11-25T18:04:47.575Z,95889.19
2022-11-25T18:07:16.632Z,95890.31
2022-11-25T18:09:45.609Z,95889.59
2022-11-25T18:12:19.455Z,95894.88
2022-11-25T18:14:47.703Z,95908.44
2022-11-25T18:17:18.839Z,95917.00
2022-11-25T18:19:52.914Z,95915.38
2022-11-25T18:22:24.588Z,95918.19
2022-11-25T18:24:52.939Z,95920.78
2022-11-25T18:27:24.482Z,95920.84
2022-11-25T18:29:53.155Z,95920.09
2022-11-25T18:32:21.245Z,95926.53
2022-11-25T18:34:49.005Z,95927.72
2022-11-25T18:37:16.713Z,95924.72
2022-11-25T18:39:46.458Z,95922.69
2022-11-25T18:42:23.633Z,95924.19
2022-11-25T18:44:51.261Z,95927.03
2022-11-25T18:47:18.851Z,95922.47
2022-11-25T18:49:49.808Z,95929.19
2022-11-25T18:52:20.063Z,95936.63
2022-11-25T18:54:49.435Z,95945.97
2022-11-25T18:57:17.116Z,95937.25
2022-11-25T18:59:48.030Z,95945.31
2022-11-25T19:02:23.949Z,95945.88
2022-11-25T19:04:51.557Z,95955.28
2022-11-25T19:07:19.191Z,95961.41
2022-11-25T19:09:46.837Z,95955.56
2022-11-25T19:12:27.830Z,95955.56
2022-11-25T19:14:57.280Z,95957.16
2022-11-25T19:17:26.030Z,95964.72
2022-11-25T19:19:57.670Z,95974.22
2022-11-25T19:22:25.400Z,95985.41
2022-11-25T19:24:53.054Z,95986.97
2022-11-25T19:27:26.264Z,95990.13
2022-11-25T19:29:55.627Z,95992.34
2022-11-25T19:32:25.311Z,95998.25
2022-11-25T19:34:56.392Z,95997.81
2022-11-25T19:37:24.134Z,96003.72
2022-11-25T19:39:53.411Z,96004.53
2022-11-25T19:42:24.555Z,96015.34
2022-11-25T19:44:52.718Z,96021.53
2022-11-25T19:47:25.522Z,96017.00
2022-11-25T19:49:57.383Z,96025.13
2022-11-25T19:52:35.667Z,96028.19
2022-11-25T19:55:07.069Z,96028.91
2022-11-25T19:57:36.060Z,96039.25
2022-11-25T20:00:07.705Z,96038.06
2022-11-25T20:02:35.414Z,96051.63
2022-11-25T20:05:05.073Z,96057.06
2022-11-25T20:07:33.089Z,96058.28
2022-11-25T20:10:08.805Z,96066.66
2022-11-25T20:12:37.872Z,96062.28
2022-11-25T20:15:07.286Z,96072.59
2022-11-25T20:17:37.497Z,96070.56
2022-11-25T20:20:11.823Z,96086.00
2022-11-25T20:22:56.086Z,96082.75
2022-11-25T20:25:24.182Z,96078.16
2022-11-25T20:27:53.430Z,96083.69
2022-11-25T20:30:22.928Z,96098.84
2022-11-25T20:32:50.650Z,96102.97
2022-11-25T20:35:19.143Z,96099.63
2022-11-25T20:37:54.112Z,96110.47
2022-11-25T20:40:32.805Z,96115.47
2022-11-25T20:43:02.145Z,96120.63
2022-11-25T20:45:33.175Z,96123.50
2022-11-25T20:48:00.969Z,96128.94
2022-11-25T20:50:30.640Z,96130.25
2022-11-25T20:52:58.300Z,96150.09
2022-11-25T20:55:27.374Z,96146.13
2022-11-25T20:57:55.184Z,96145.19
2022-11-25T21:00:25.727Z,96151.25
2022-11-25T21:02:57.124Z,96144.06
2022-11-25T21:05:27.416Z,96152.78
2022-11-25T21:07:55.457Z,96160.44
2022-11-25T21:10:26.499Z,96155.09
2022-11-25T21:12:54.491Z,96163.13
2022-11-25T21:15:25.962Z,96164.13
2022-11-25T21:17:53.587Z,96165.91
2022-11-25T21:20:21.459Z,96167.09
2022-11-25T21:22:52.115Z,96177.09
2022-11-25T21:25:22.081Z,96177.59
2022-11-25T21:27:52.052Z,96167.97
2022-11-25T21:30:21.623Z,96179.56
2022-11-25T21:32:52.882Z,96186.56
2022-11-25T21:35:20.513Z,96186.97
2022-11-25T21:37:48.425Z,96189.22
2022-11-25T21:40:31.139Z,96187.19
2022-11-25T21:42:59.276Z,96192.81
2022-11-25T21:45:26.970Z,96184.31
2022-11-25T21:47:55.941Z,96196.66
2022-11-25T21:50:23.628Z,96191.59
2022-11-25T21:52:51.260Z,96198.66
2022-11-25T21:55:18.864Z,96197.00
2022-11-25T21:57:46.581Z,96199.59
2022-11-25T22:00:21.657Z,96202.09
2022-11-25T22:02:49.601Z,96209.75
2022-11-25T22:05:20.552Z,96207.75
2022-11-25T22:07:48.402Z,96210.50
2022-11-25T22:10:17.297Z,96220.00
2022-11-25T22:12:47.480Z,96224.06
2022-11-25T22:15:17.776Z,96225.41
2022-11-25T22:17:45.764Z,96229.25
2022-11-25T22:20:26.632Z,96222.66
2022-11-25T22:22:54.856Z,96229.75
2022-11-25T22:25:23.966Z,96237.44
2022-11-25T22:27:51.778Z,96232.34
2022-11-25T22:30:21.750Z,96239.16
2022-11-25T22:32:59.415Z,96239.09
2022-11-25T22:35:29.203Z,96246.75
2022-11-25T22:37:56.824Z,96249.09
2022-11-25T22:40:24.972Z,96249.00
2022-11-25T22:42:54.051Z,96251.06
2022-11-25T22:45:28.591Z,96254.25
2022-11-25T22:47:56.585Z,96251.41
2022-11-25T22:50:27.379Z,96254.75
2022-11-25T22:52:57.263Z,96251.50
2022-11-25T22:55:26.870Z,96255.72
2022-11-25T22:57:56.762Z,96257.41
2022-11-25T23:00:26.912Z,96262.63
2022-11-25T23:02:58.210Z,96260.38
2022-11-25T23:05:32.125Z,96258.66
2022-11-25T23:08:01.760Z,96249.56
2022-11-25T23:10:32.217Z,96259.97
2022-11-25T23:12:59.835Z,96256.06
2022-11-25T23:15:27.478Z,96268.16
2022-11-25T23:17:56.626Z,96261.72
2022-11-25T23:20:27.649Z,96265.94
2022-11-25T23:22:55.667Z,96268.72
2022-11-25T23:25:24.961Z,96266.69
2022-11-25T23:27:52.550Z,96266.16
2022-11-25T23:30:22.477Z,96270.25
2022-11-25T23:32:52.416Z,96271.28
2022-11-25T23:35:21.679Z,96267.69
2022-11-25T23:37:55.098Z,96267.19
2022-11-25T23:40:26.073Z,96273.53
2022-11-25T23:42:55.446Z,96272.63
2022-11-25T23:45:26.113Z,96265.03
2022-11-25T23:47:55.538Z,96274.06
2022-11-25T23:50:28.104Z,96273.53
2022-11-25T23:52:59.014Z,96278.69
2022-11-25T23:55:33.187Z,96273.22
2022-11-25T23:58:02.255Z,96282.63
